Time;durP1;ratioP1;P1;durP2;ratioP2;P2;SDS_P1;SDS_P2;PMS_P1;PMS_P2;Temp;Humidity;BMP_temperature;BMP_pressure;BME280_temperature;BME280_humidity;BME280_pressure;Samples;Min_cycle;Max_cycle;Signal;HPM_P1;HPM_P2
2022/04/11 00:00:25;;;;;;;6.90;2.50;;;8.00;89.10;;;;;;5024643;28;20053;-70
2022/04/11 00:02:50;;;;;;;6.13;2.70;;;8.00;89.10;;;;;;5024324;28;20025;-70
2022/04/11 00:05:16;;;;;;;8.07;2.53;;;8.00;89.40;;;;;;5007887;28;20144;-70
2022/04/11 00:07:42;;;;;;;7.60;2.53;;;8.00;89.60;;;;;;5024296;28;20093;-70
2022/04/11 00:10:09;;;;;;;6.78;2.88;;;8.10;89.60;;;;;;5025437;28;20028;-70
2022/04/11 00:12:36;;;;;;;8.68;4.10;;;8.00;89.90;;;;;;5025190;28;20038;-71
2022/04/11 00:15:06;;;;;;;8.23;2.92;;;8.10;90.00;;;;;;5007571;28;20022;-71
2022/04/11 00:17:32;;;;;;;9.43;3.15;;;8.10;90.10;;;;;;5024328;28;20025;-71
2022/04/11 00:19:58;;;;;;;14.98;5.53;;;8.00;90.20;;;;;;5024477;28;20056;-70
2022/04/11 00:22:24;;;;;;;9.00;3.50;;;8.10;90.30;;;;;;5023472;28;20320;-71
2022/04/11 00:24:50;;;;;;;7.80;2.08;;;8.00;90.40;;;;;;5023910;28;20072;-71
2022/04/11 00:27:16;;;;;;;5.22;2.40;;;8.00;90.40;;;;;;5024428;28;20052;-71
2022/04/11 00:29:42;;;;;;;5.68;2.40;;;8.00;90.50;;;;;;5025240;28;20029;-71
2022/04/11 00:32:08;;;;;;;6.97;2.70;;;8.10;90.70;;;;;;5005330;28;20029;-71
2022/04/11 00:34:33;;;;;;;9.10;3.70;;;8.10;90.60;;;;;;5025182;28;20125;-71
2022/04/11 00:36:59;;;;;;;8.73;4.38;;;8.10;90.80;;;;;;5007338;28;20025;-71
2022/04/11 00:39:25;;;;;;;14.95;5.57;;;8.10;90.80;;;;;;5007796;28;20080;-71
2022/04/11 00:41:50;;;;;;;11.48;5.88;;;8.00;90.80;;;;;;5023724;28;20018;-71
2022/04/11 00:44:16;;;;;;;10.63;5.47;;;8.00;91.00;;;;;;5007340;28;20013;-70
2022/04/11 00:46:42;;;;;;;8.18;4.28;;;8.00;91.10;;;;;;5023193;28;20110;-71
2022/04/11 00:49:08;;;;;;;8.52;2.97;;;8.00;91.10;;;;;;5023566;28;20048;-71
2022/04/11 00:51:34;;;;;;;8.15;3.65;;;8.00;91.20;;;;;;5023098;28;20068;-70
2022/04/11 00:54:01;;;;;;;10.15;5.65;;;8.00;91.30;;;;;;5006981;28;20080;-70
2022/04/11 00:56:29;;;;;;;19.58;6.68;;;8.00;91.40;;;;;;5007284;28;20087;-71
2022/04/11 00:58:58;;;;;;;14.65;6.50;;;8.00;91.40;;;;;;5021950;28;20321;-71
2022/04/11 01:01:24;;;;;;;14.40;6.55;;;8.00;91.50;;;;;;5023474;28;20036;-71
2022/04/11 01:03:51;;;;;;;16.90;6.70;;;8.00;91.60;;;;;;5023443;28;20021;-70
2022/04/11 01:06:16;;;;;;;12.07;5.80;;;7.90;91.70;;;;;;5023423;28;20309;-70
2022/04/11 01:08:42;;;;;;;11.48;5.93;;;7.90;91.80;;;;;;5022946;28;20097;-70
2022/04/11 01:11:08;;;;;;;12.55;5.57;;;7.90;91.90;;;;;;5023040;28;20025;-70
2022/04/11 01:13:34;;;;;;;12.25;5.43;;;7.90;92.00;;;;;;5024378;28;20101;-69
2022/04/11 01:16:02;;;;;;;13.43;4.78;;;7.90;92.20;;;;;;5024173;28;20128;-70
2022/04/11 01:18:28;;;;;;;8.95;3.85;;;7.90;92.20;;;;;;5006813;28;20029;-70
2022/04/11 01:20:54;;;;;;;8.52;4.05;;;7.90;92.30;;;;;;5006767;28;20268;-70
2022/04/11 01:23:20;;;;;;;12.52;4.53;;;7.90;92.40;;;;;;5005908;28;20037;-70
2022/04/11 01:25:51;;;;;;;9.90;4.78;;;7.80;92.40;;;;;;5022835;28;20026;-70
2022/04/11 01:28:18;;;;;;;17.20;5.03;;;7.90;92.60;;;;;;5023178;28;20052;-70
2022/04/11 01:30:44;;;;;;;7.93;4.15;;;7.80;92.70;;;;;;5022889;28;20025;-70
2022/04/11 01:33:21;;;;;;;12.85;3.40;;;7.80;92.70;;;;;;5004472;28;20419;-70
2022/04/11 01:35:47;;;;;;;9.48;3.20;;;7.80;92.80;;;;;;5003126;28;20022;-70
2022/04/11 01:38:13;;;;;;;7.72;3.65;;;7.80;92.80;;;;;;5002890;28;20209;-70
2022/04/11 01:40:48;;;;;;;10.65;3.88;;;7.80;92.90;;;;;;5003506;28;20014;-71
2022/04/11 01:43:13;;;;;;;11.90;3.88;;;7.70;93.00;;;;;;4987061;28;20023;-71
2022/04/11 01:45:39;;;;;;;7.45;3.22;;;7.70;93.10;;;;;;5003861;28;20112;-71
2022/04/11 01:48:05;;;;;;;9.07;4.13;;;7.70;93.10;;;;;;5020661;28;20053;-71
2022/04/11 01:50:30;;;;;;;6.03;3.30;;;7.70;93.20;;;;;;5006450;28;20022;-71
2022/04/11 01:53:08;;;;;;;14.32;3.90;;;7.70;93.20;;;;;;5005903;28;20229;-69
2022/04/11 01:55:35;;;;;;;10.55;3.92;;;7.60;93.20;;;;;;5005878;28;20034;-69
2022/04/11 01:58:05;;;;;;;13.02;4.20;;;7.60;93.30;;;;;;5022944;28;20105;-70
2022/04/11 02:00:31;;;;;;;13.45;4.03;;;7.60;93.40;;;;;;5007036;28;20309;-70
2022/04/11 02:02:59;;;;;;;7.45;3.33;;;7.50;93.50;;;;;;5022476;28;20294;-69
2022/04/11 02:05:26;;;;;;;9.35;3.45;;;7.50;93.60;;;;;;5022674;28;20033;-70
2022/04/11 02:07:52;;;;;;;9.57;4.85;;;7.50;93.60;;;;;;5005887;28;20068;-70
2022/04/11 02:10:17;;;;;;;12.75;6.60;;;7.50;93.70;;;;;;5022404;28;20022;-70
2022/04/11 02:12:43;;;;;;;15.20;5.90;;;7.50;93.90;;;;;;5002595;28;20214;-69
2022/04/11 02:15:10;;;;;;;13.90;6.32;;;7.60;93.90;;;;;;5003932;28;20025;-70
2022/04/11 02:17:35;;;;;;;12.88;5.95;;;7.60;93.90;;;;;;5003015;28;20033;-69
2022/04/11 02:20:02;;;;;;;16.33;6.22;;;7.60;93.90;;;;;;5005657;28;20220;-70
2022/04/11 02:22:27;;;;;;;10.70;4.70;;;7.60;93.80;;;;;;5006268;28;20353;-70
2022/04/11 02:24:53;;;;;;;8.85;4.63;;;7.60;93.90;;;;;;5006744;28;20041;-71
2022/04/11 02:27:19;;;;;;;10.20;4.40;;;7.60;93.90;;;;;;5006520;28;20029;-71
2022/04/11 02:29:44;;;;;;;9.85;3.58;;;7.60;93.80;;;;;;5006653;28;20054;-71
2022/04/11 02:32:10;;;;;;;11.23;4.22;;;7.70;93.80;;;;;;5004995;28;20042;-70
2022/04/11 02:34:36;;;;;;;8.43;3.70;;;7.70;93.90;;;;;;5001251;28;20040;-71
2022/04/11 02:37:01;;;;;;;13.48;4.32;;;7.60;94.00;;;;;;5009240;28;20143;-71
2022/04/11 02:39:27;;;;;;;8.50;3.95;;;7.60;94.10;;;;;;5009409;28;20017;-71
2022/04/11 02:41:53;;;;;;;12.73;3.83;;;7.60;94.20;;;;;;5009264;28;20092;-70
2022/04/11 02:44:18;;;;;;;10.23;3.47;;;7.60;94.30;;;;;;5009139;28;20425;-71
2022/04/11 02:46:44;;;;;;;10.50;3.80;;;7.60;94.20;;;;;;5008779;28;20026;-71
2022/04/11 02:49:10;;;;;;;5.85;3.35;;;7.60;94.20;;;;;;5009651;28;20216;-71
2022/04/11 02:51:36;;;;;;;9.48;4.00;;;7.60;94.20;;;;;;5008655;28;20379;-70
2022/04/11 02:54:07;;;;;;;15.57;4.40;;;7.50;94.40;;;;;;5025663;28;20096;-71
2022/04/11 02:56:34;;;;;;;14.50;4.65;;;7.50;94.50;;;;;;4994362;28;20018;-71
2022/04/11 02:59:00;;;;;;;10.40;4.97;;;7.50;94.50;;;;;;5025583;28;20029;-71
2022/04/11 03:01:25;;;;;;;13.13;5.13;;;7.50;94.60;;;;;;5009037;28;20018;-71
2022/04/11 03:03:51;;;;;;;15.30;5.05;;;7.50;94.70;;;;;;5009108;28;20296;-71
2022/04/11 03:06:17;;;;;;;14.85;6.10;;;7.40;94.80;;;;;;5025336;28;20099;-70
2022/04/11 03:08:43;;;;;;;16.60;5.93;;;7.40;94.90;;;;;;5009543;28;20343;-70
2022/04/11 03:11:08;;;;;;;13.70;5.25;;;7.40;95.00;;;;;;5001628;28;20097;-72
2022/04/11 03:13:34;;;;;;;18.80;6.40;;;7.40;95.10;;;;;;4988997;28;20329;-71
2022/04/11 03:16:00;;;;;;;17.85;5.65;;;7.40;95.20;;;;;;4989313;28;20018;-71
2022/04/11 03:18:25;;;;;;;7.25;3.80;;;7.40;95.30;;;;;;5005704;28;20029;-71
2022/04/11 03:20:51;;;;;;;12.45;4.13;;;7.40;95.30;;;;;;5005339;28;20033;-71
2022/04/11 03:23:17;;;;;;;12.07;4.32;;;7.50;95.40;;;;;;5005538;28;20037;-71
2022/04/11 03:25:43;;;;;;;10.52;4.05;;;7.40;95.50;;;;;;5005572;28;20089;-71
2022/04/11 03:28:09;;;;;;;8.80;4.10;;;7.40;95.90;;;;;;5005471;28;20094;-71
2022/04/11 03:30:34;;;;;;;11.38;4.40;;;7.40;95.70;;;;;;4989278;28;20208;-71
2022/04/11 03:33:00;;;;;;;10.73;4.78;;;7.40;95.80;;;;;;4986570;28;20193;-71
2022/04/11 03:35:26;;;;;;;16.83;5.00;;;7.40;95.80;;;;;;5006345;28;20034;-71
2022/04/11 03:37:51;;;;;;;15.88;5.32;;;7.40;95.90;;;;;;5024793;28;20088;-71
2022/04/11 03:40:17;;;;;;;12.63;5.00;;;7.40;96.00;;;;;;5008752;28;20029;-70
2022/04/11 03:42:43;;;;;;;12.45;4.75;;;7.40;96.00;;;;;;5025084;28;20014;-70
2022/04/11 03:45:11;;;;;;;16.17;4.95;;;7.40;96.10;;;;;;5008026;28;20324;-71
2022/04/11 03:47:37;;;;;;;9.75;3.95;;;7.40;96.20;;;;;;5024881;28;20025;-71
2022/04/11 03:50:03;;;;;;;11.23;4.20;;;7.50;96.30;;;;;;5008518;28;20044;-71
2022/04/11 03:52:29;;;;;;;10.13;4.85;;;7.40;96.40;;;;;;5024790;28;20041;-70
2022/04/11 03:54:55;;;;;;;10.45;4.38;;;7.40;96.50;;;;;;5008114;28;20045;-70
2022/04/11 03:57:20;;;;;;;17.52;4.72;;;7.30;96.60;;;;;;5019509;28;20014;-70
2022/04/11 03:59:46;;;;;;;12.82;4.60;;;7.30;96.80;;;;;;5005309;28;20030;-69
2022/04/11 04:02:12;;;;;;;12.25;5.20;;;7.30;96.90;;;;;;5005992;28;20213;-70
2022/04/11 04:04:37;;;;;;;11.68;4.38;;;7.30;97.00;;;;;;5004970;28;20022;-70
2022/04/11 04:07:04;;;;;;;14.57;5.10;;;7.30;97.10;;;;;;5004692;28;20019;-70
2022/04/11 04:09:29;;;;;;;9.00;3.70;;;7.30;97.20;;;;;;5004667;28;20018;-71
2022/04/11 04:11:55;;;;;;;14.63;4.60;;;7.30;97.30;;;;;;5002046;28;20034;-70
2022/04/11 04:14:21;;;;;;;7.53;4.43;;;7.20;97.40;;;;;;5008168;28;20060;-70
2022/04/11 04:16:46;;;;;;;10.98;4.85;;;7.20;97.50;;;;;;5024096;28;20021;-71
2022/04/11 04:19:13;;;;;;;15.43;4.90;;;7.20;97.60;;;;;;5024326;28;20054;-70
2022/04/11 04:21:39;;;;;;;10.02;4.53;;;7.20;97.70;;;;;;5024143;28;20018;-71
2022/04/11 04:24:05;;;;;;;11.27;4.97;;;7.20;97.80;;;;;;5023958;28;20061;-70
2022/04/11 04:26:30;;;;;;;9.73;4.78;;;7.20;97.90;;;;;;5024279;28;20025;-70
2022/04/11 04:28:56;;;;;;;9.68;4.00;;;7.20;98.00;;;;;;5024150;28;20135;-70
2022/04/11 04:31:22;;;;;;;18.02;5.82;;;7.20;98.00;;;;;;5023981;28;20029;-70
2022/04/11 04:33:47;;;;;;;11.05;4.90;;;7.20;98.10;;;;;;5005938;28;20053;-70
2022/04/11 04:36:13;;;;;;;12.00;4.70;;;7.20;98.10;;;;;;5023698;28;20025;-71
2022/04/11 04:38:39;;;;;;;10.88;4.57;;;7.20;98.20;;;;;;5024728;28;20017;-71
2022/04/11 04:41:04;;;;;;;13.45;4.95;;;7.20;98.20;;;;;;5024104;28;20025;-71
2022/04/11 04:43:30;;;;;;;15.82;4.50;;;7.30;98.30;;;;;;5023818;28;20340;-71
2022/04/11 04:45:56;;;;;;;19.30;4.45;;;7.30;98.40;;;;;;5006784;28;20323;-70
2022/04/11 04:48:21;;;;;;;13.45;4.90;;;7.30;98.40;;;;;;5023474;28;20068;-72
2022/04/11 04:50:47;;;;;;;14.10;4.20;;;7.30;98.40;;;;;;5023461;28;20117;-71
2022/04/11 04:53:13;;;;;;;8.15;4.53;;;7.30;98.80;;;;;;5024246;28;20053;-71
2022/04/11 04:55:39;;;;;;;13.05;4.57;;;7.30;98.50;;;;;;5023730;28;20206;-71
2022/04/11 04:58:05;;;;;;;12.48;4.50;;;7.30;98.90;;;;;;5012513;28;20057;-71
2022/04/11 05:00:30;;;;;;;10.23;4.30;;;7.30;98.60;;;;;;5003641;28;20221;-71
2022/04/11 05:02:56;;;;;;;8.82;4.25;;;7.30;98.60;;;;;;5003687;28;20038;-71
2022/04/11 05:05:22;;;;;;;12.88;4.50;;;7.30;98.60;;;;;;5003690;28;20288;-70
2022/04/11 05:07:47;;;;;;;12.10;4.25;;;7.40;98.60;;;;;;4987737;28;20022;-71
2022/04/11 05:10:14;;;;;;;10.35;4.15;;;7.40;98.60;;;;;;5004791;28;20213;-70
2022/04/11 05:12:45;;;;;;;12.85;4.38;;;7.40;98.60;;;;;;5019541;28;20045;-71
2022/04/11 05:15:12;;;;;;;10.93;4.47;;;7.40;98.60;;;;;;5004596;28;20089;-71
2022/04/11 05:17:38;;;;;;;11.98;4.68;;;7.40;98.60;;;;;;4987166;28;20102;-70
2022/04/11 05:20:05;;;;;;;11.65;3.90;;;7.40;98.50;;;;;;5003273;28;20022;-70
2022/04/11 05:22:31;;;;;;;7.72;3.90;;;7.40;98.50;;;;;;5003715;28;20076;-70
2022/04/11 05:24:57;;;;;;;6.72;3.78;;;7.40;98.40;;;;;;5003529;28;20050;-71
2022/04/11 05:27:23;;;;;;;12.45;3.95;;;7.50;98.50;;;;;;5003370;28;20022;-71
2022/04/11 05:29:48;;;;;;;7.60;3.72;;;7.60;98.70;;;;;;5002967;28;20109;-70
2022/04/11 05:32:14;;;;;;;9.98;3.80;;;7.60;98.70;;;;;;5004647;28;20026;-70
2022/04/11 05:34:39;;;;;;;7.75;3.75;;;7.60;98.60;;;;;;5013193;28;20018;-70
2022/04/11 05:37:06;;;;;;;8.13;3.60;;;7.60;98.60;;;;;;5006688;28;20026;-71
2022/04/11 05:39:31;;;;;;;10.15;3.97;;;7.70;98.40;;;;;;5022704;28;20051;-70
2022/04/11 05:41:57;;;;;;;10.95;4.40;;;7.70;98.40;;;;;;5023154;28;20240;-70
2022/04/11 05:44:23;;;;;;;8.15;3.72;;;7.70;98.60;;;;;;5006598;28;20240;-70
2022/04/11 05:46:52;;;;;;;8.27;3.58;;;7.80;98.10;;;;;;5023810;28;20257;-69
2022/04/11 05:49:20;;;;;;;7.35;3.60;;;7.80;97.90;;;;;;5006743;28;20022;-69
2022/04/11 05:51:46;;;;;;;7.72;3.72;;;7.90;97.70;;;;;;5017981;28;20061;-69
2022/04/11 05:54:12;;;;;;;9.40;3.47;;;7.90;97.50;;;;;;4986806;28;20077;-70
2022/04/11 05:56:38;;;;;;;9.15;3.90;;;7.90;97.60;;;;;;4986820;28;20038;-70
2022/04/11 05:59:04;;;;;;;9.82;3.88;;;8.00;97.40;;;;;;5002238;28;20064;-70
2022/04/11 06:01:30;;;;;;;7.22;3.50;;;8.10;97.00;;;;;;5004206;28;20025;-71
2022/04/11 06:03:57;;;;;;;10.10;3.53;;;8.10;97.10;;;;;;5002969;28;20026;-71
2022/04/11 06:06:22;;;;;;;8.45;3.53;;;8.20;96.70;;;;;;5002954;28;20329;-71
2022/04/11 06:08:48;;;;;;;8.70;3.10;;;8.20;96.70;;;;;;4986970;28;20030;-70
2022/04/11 06:11:14;;;;;;;7.65;3.45;;;8.30;96.80;;;;;;5002683;28;20030;-71
2022/04/11 06:13:45;;;;;;;8.15;3.28;;;8.30;96.40;;;;;;5003012;28;20054;-71
2022/04/11 06:16:12;;;;;;;6.45;2.90;;;8.40;96.30;;;;;;5002556;28;20088;-71
2022/04/11 06:18:38;;;;;;;7.32;3.35;;;8.40;95.80;;;;;;5003836;28;20033;-70
2022/04/11 06:21:04;;;;;;;6.57;4.00;;;8.50;96.00;;;;;;4986226;28;20058;-70
2022/04/11 06:23:30;;;;;;;9.07;3.28;;;8.50;96.10;;;;;;4986375;28;20018;-71
2022/04/11 06:25:56;;;;;;;10.30;3.15;;;8.60;95.60;;;;;;4986747;28;20306;-70
2022/04/11 06:28:21;;;;;;;10.50;4.15;;;8.60;95.20;;;;;;4986476;28;20029;-71
2022/04/11 06:30:47;;;;;;;9.23;3.42;;;8.70;95.70;;;;;;4985930;28;20022;-71
2022/04/11 06:33:13;;;;;;;5.20;3.17;;;8.80;95.30;;;;;;4985978;28;20228;-71
2022/04/11 06:35:39;;;;;;;9.60;3.53;;;8.80;95.00;;;;;;4981747;28;20245;-71
2022/04/11 06:38:04;;;;;;;7.78;3.40;;;8.90;95.00;;;;;;4982954;28;20019;-71
2022/04/11 06:40:30;;;;;;;8.65;2.95;;;9.00;95.00;;;;;;4983146;28;20023;-71
2022/04/11 06:42:56;;;;;;;8.13;3.60;;;9.00;94.40;;;;;;4998879;28;20031;-71
2022/04/11 06:45:22;;;;;;;4.30;3.30;;;9.00;94.20;;;;;;4982800;28;20046;-71
2022/04/11 06:47:48;;;;;;;13.32;3.20;;;9.10;94.30;;;;;;5002283;28;20301;-71
2022/04/11 06:50:14;;;;;;;7.38;2.90;;;9.10;94.00;;;;;;5002057;28;20018;-70
2022/04/11 06:52:40;;;;;;;7.15;3.67;;;9.10;93.60;;;;;;5014025;28;20080;-70
2022/04/11 06:55:07;;;;;;;7.38;3.50;;;9.20;93.90;;;;;;5022349;28;20309;-72
2022/04/11 06:57:32;;;;;;;11.27;2.92;;;9.30;93.90;;;;;;5015473;28;20030;-71
2022/04/11 06:59:58;;;;;;;9.48;3.00;;;9.30;93.40;;;;;;5002348;28;20019;-70
2022/04/11 07:02:24;;;;;;;3.95;3.08;;;9.20;93.40;;;;;;5003170;28;20018;-71
2022/04/11 07:04:50;;;;;;;7.25;3.38;;;9.30;93.60;;;;;;5001950;28;20026;-71
2022/04/11 07:07:15;;;;;;;7.03;3.17;;;9.30;93.30;;;;;;4987998;28;20318;-71
2022/04/11 07:09:41;;;;;;;10.05;3.92;;;9.40;93.20;;;;;;5006016;28;20309;-71
2022/04/11 07:12:07;;;;;;;6.28;3.05;;;9.40;93.50;;;;;;5020670;28;20052;-71
2022/04/11 07:14:33;;;;;;;6.35;3.30;;;9.50;93.50;;;;;;5008616;28;20021;-72
2022/04/11 07:16:59;;;;;;;4.68;2.47;;;9.60;92.80;;;;;;5008904;28;20026;-71
2022/04/11 07:19:25;;;;;;;9.50;3.15;;;9.70;92.60;;;;;;5025383;28;20013;-72
2022/04/11 07:21:50;;;;;;;10.70;3.40;;;9.70;92.80;;;;;;5008779;28;20096;-72
2022/04/11 07:24:16;;;;;;;8.23;3.10;;;9.80;92.40;;;;;;5025113;28;20254;-72
2022/04/11 07:26:42;;;;;;;10.77;2.97;;;9.80;92.20;;;;;;5008741;28;20018;-72
2022/04/11 07:29:08;;;;;;;6.40;2.90;;;9.80;92.30;;;;;;5008731;28;20025;-72
2022/04/11 07:31:34;;;;;;;7.38;2.63;;;9.90;92.20;;;;;;5008549;28;20025;-71
2022/04/11 07:34:01;;;;;;;7.20;2.90;;;9.90;91.90;;;;;;5008700;28;20095;-71
2022/04/11 07:36:28;;;;;;;5.70;2.85;;;9.90;91.80;;;;;;5024027;28;20017;-71
2022/04/11 07:38:55;;;;;;;5.55;2.83;;;10.00;91.90;;;;;;5008630;28;20021;-71
2022/04/11 07:41:21;;;;;;;4.82;2.40;;;10.00;91.50;;;;;;5008740;28;20068;-71
2022/04/11 07:43:47;;;;;;;6.30;2.70;;;10.10;91.40;;;;;;5024815;28;20026;-71
2022/04/11 07:46:12;;;;;;;6.57;3.20;;;10.10;91.30;;;;;;5008239;28;20045;-71
2022/04/11 07:48:38;;;;;;;6.93;3.10;;;10.20;91.30;;;;;;5007888;28;20033;-70
2022/04/11 07:51:05;;;;;;;8.63;2.53;;;10.30;90.80;;;;;;5024816;28;20029;-72
2022/04/11 07:53:30;;;;;;;5.13;2.42;;;10.40;90.70;;;;;;5024418;28;20065;-70
2022/04/11 07:55:56;;;;;;;7.43;2.60;;;10.50;90.70;;;;;;5024701;28;20025;-70
2022/04/11 07:58:22;;;;;;;6.25;2.60;;;10.50;90.20;;;;;;5024642;28;20034;-70
2022/04/11 08:00:51;;;;;;;7.57;2.90;;;10.50;90.00;;;;;;5025518;28;20025;-71
2022/04/11 08:03:18;;;;;;;8.40;2.40;;;10.60;90.20;;;;;;5024968;28;20063;-71
2022/04/11 08:05:44;;;;;;;6.97;2.58;;;10.60;90.00;;;;;;5025602;28;20022;-71
2022/04/11 08:08:09;;;;;;;5.05;2.60;;;10.60;89.70;;;;;;5007606;28;20141;-71
2022/04/11 08:10:35;;;;;;;5.82;2.53;;;10.70;89.50;;;;;;5021796;28;20026;-70
2022/04/11 08:13:02;;;;;;;4.32;2.13;;;10.70;90.20;;;;;;5005571;28;20356;-71
2022/04/11 08:15:30;;;;;;;6.72;2.33;;;10.70;90.00;;;;;;4988648;28;20022;-72
2022/04/11 08:17:57;;;;;;;4.68;2.63;;;10.70;89.50;;;;;;5004511;28;20317;-72
2022/04/11 08:20:24;;;;;;;8.57;2.60;;;10.80;90.00;;;;;;5004771;28;20014;-72
2022/04/11 08:22:49;;;;;;;6.32;2.65;;;10.90;90.10;;;;;;4988188;28;20097;-71
2022/04/11 08:25:15;;;;;;;4.03;2.35;;;10.90;88.20;;;;;;5004547;28;20375;-70
2022/04/11 08:27:41;;;;;;;10.35;2.75;;;10.90;88.30;;;;;;5004542;28;20034;-71
2022/04/11 08:30:09;;;;;;;4.65;2.55;;;10.90;88.90;;;;;;5005776;28;20082;-73
2022/04/11 08:32:51;;;;;;;5.45;1.95;;;11.00;88.50;;;;;;5005149;28;20231;-71
2022/04/11 08:35:20;;;;;;;5.30;2.03;;;11.10;87.70;;;;;;5021128;28;20018;-71
2022/04/11 08:37:46;;;;;;;5.07;2.35;;;11.20;88.20;;;;;;5023836;28;20037;-71
2022/04/11 08:40:13;;;;;;;6.38;2.53;;;11.40;87.90;;;;;;5023643;28;20014;-70
2022/04/11 08:42:40;;;;;;;6.13;2.25;;;11.50;86.90;;;;;;5007752;28;20022;-71
2022/04/11 08:45:07;;;;;;;7.65;2.60;;;11.40;86.80;;;;;;5006742;28;20305;-71
2022/04/11 08:47:34;;;;;;;4.82;2.70;;;11.60;87.40;;;;;;5007643;28;20022;-72
2022/04/11 08:50:00;;;;;;;6.03;2.10;;;11.60;86.80;;;;;;5023104;28;20100;-71
2022/04/11 08:52:27;;;;;;;8.23;2.30;;;11.70;86.00;;;;;;5022836;28;20252;-71
2022/04/11 08:54:53;;;;;;;7.18;2.20;;;11.80;85.80;;;;;;5023452;28;20037;-72
2022/04/11 08:57:21;;;;;;;8.10;2.17;;;11.80;86.40;;;;;;5023448;28;20217;-72
2022/04/11 08:59:46;;;;;;;5.63;2.30;;;11.90;85.20;;;;;;5023700;28;20029;-72
2022/04/11 09:02:12;;;;;;;3.63;1.75;;;11.90;85.40;;;;;;5023166;28;20224;-72
2022/04/11 09:04:55;;;;;;;2.80;1.73;;;11.90;85.50;;;;;;5024683;28;20033;-72
2022/04/11 09:07:21;;;;;;;9.48;2.10;;;12.00;86.10;;;;;;5007044;28;20029;-71
2022/04/11 09:09:47;;;;;;;7.22;2.20;;;12.10;84.50;;;;;;5006957;28;20061;-72
2022/04/11 09:12:14;;;;;;;3.85;2.00;;;12.10;84.30;;;;;;5008339;28;20029;-72
2022/04/11 09:14:41;;;;;;;6.78;2.60;;;12.10;84.70;;;;;;5003426;28;20081;-72
2022/04/11 09:17:09;;;;;;;5.88;2.28;;;12.30;84.80;;;;;;5003742;28;20014;-73
2022/04/11 09:19:36;;;;;;;3.78;2.08;;;12.30;84.30;;;;;;5003835;28;20018;-72
2022/04/11 09:22:02;;;;;;;5.03;1.90;;;12.40;83.70;;;;;;5003456;28;20097;-72
2022/04/11 09:24:30;;;;;;;7.80;2.35;;;12.50;84.30;;;;;;5004273;28;20026;-72
2022/04/11 09:26:56;;;;;;;4.97;1.80;;;12.60;83.70;;;;;;4987594;28;20265;-72
2022/04/11 09:29:26;;;;;;;5.93;1.85;;;12.60;83.00;;;;;;5002860;28;20333;-71
2022/04/11 09:31:53;;;;;;;6.25;2.33;;;12.60;83.30;;;;;;5004192;28;20089;-72
2022/04/11 09:34:26;;;;;;;6.45;1.85;;;12.70;83.60;;;;;;5011785;28;20293;-71
2022/04/11 09:36:55;;;;;;;7.15;2.05;;;12.70;83.10;;;;;;5006744;28;20018;-71
2022/04/11 09:39:24;;;;;;;6.32;2.00;;;12.60;83.30;;;;;;5021611;28;20076;-72
2022/04/11 09:41:51;;;;;;;7.50;2.58;;;12.60;83.50;;;;;;5006798;28;20022;-72
2022/04/11 09:44:30;;;;;;;7.10;2.33;;;12.70;84.50;;;;;;5022983;28;20068;-72
2022/04/11 09:47:00;;;;;;;7.53;2.28;;;12.80;83.10;;;;;;5022638;28;20101;-72
2022/04/11 09:49:26;;;;;;;7.07;2.47;;;13.00;83.20;;;;;;5022567;28;20025;-72
2022/04/11 09:52:13;;;;;;;4.30;2.28;;;13.00;83.30;;;;;;5022649;28;20087;-71
2022/04/11 09:54:43;;;;;;;5.82;2.10;;;13.00;83.20;;;;;;5022998;28;20100;-72
2022/04/11 09:57:10;;;;;;;6.15;2.10;;;13.20;83.10;;;;;;5007115;28;20264;-72
2022/04/11 09:59:39;;;;;;;6.13;2.08;;;13.40;82.60;;;;;;5024248;28;20029;-72
2022/04/11 10:02:06;;;;;;;7.22;2.20;;;13.60;82.40;;;;;;5022582;28;20026;-72
2022/04/11 10:04:33;;;;;;;7.15;2.72;;;13.80;81.10;;;;;;5022733;28;20051;-72
2022/04/11 10:06:59;;;;;;;6.72;2.05;;;13.80;81.00;;;;;;5006654;28;20053;-73
2022/04/11 10:09:25;;;;;;;3.75;1.90;;;13.90;80.00;;;;;;5022811;28;20029;-72
2022/04/11 10:11:53;;;;;;;4.13;1.90;;;14.00;80.90;;;;;;5005786;28;20187;-73
2022/04/11 10:14:23;;;;;;;6.35;2.25;;;14.20;80.60;;;;;;5006253;28;20222;-73
2022/04/11 10:16:52;;;;;;;4.47;1.80;;;14.40;80.20;;;;;;5006151;28;20317;-72
2022/04/11 10:19:23;;;;;;;8.20;2.20;;;14.50;80.80;;;;;;5022686;28;20018;-72
2022/04/11 10:21:50;;;;;;;3.47;1.90;;;14.50;80.90;;;;;;5005855;28;20224;-73
2022/04/11 10:24:33;;;;;;;6.07;1.88;;;14.40;79.20;;;;;;5005713;28;20032;-72
2022/04/11 10:27:15;;;;;;;3.75;1.77;;;14.40;77.80;;;;;;5006408;28;20040;-73
2022/04/11 10:29:41;;;;;;;6.38;2.10;;;14.40;78.50;;;;;;5006226;28;20045;-72
2022/04/11 10:32:10;;;;;;;3.95;1.80;;;14.50;78.60;;;;;;5022317;28;20029;-72
2022/04/11 10:35:01;;;;;;;6.50;2.28;;;14.60;77.90;;;;;;5005400;28;20024;-72
2022/04/11 10:37:49;;;;;;;4.87;1.90;;;14.40;78.10;;;;;;5022426;28;20330;-72
2022/04/11 10:40:36;;;;;;;8.27;2.20;;;14.40;78.70;;;;;;5007372;28;20255;-73
2022/04/11 10:43:17;;;;;;;6.05;2.15;;;14.40;79.00;;;;;;5026084;28;20017;-72
2022/04/11 10:45:57;;;;;;;6.07;1.80;;;14.40;78.60;;;;;;5025400;28;20022;-72
2022/04/11 10:48:59;;;;;;;4.93;1.90;;;14.50;79.10;;;;;;5025849;28;20025;-73
2022/04/11 10:51:25;;;;;;;6.95;2.08;;;14.70;78.50;;;;;;4998583;28;20041;-73
2022/04/11 10:54:19;;;;;;;5.15;1.95;;;14.80;78.00;;;;;;5010636;28;20228;-73
2022/04/11 10:56:53;;;;;;;7.78;1.95;;;14.90;78.10;;;;;;5013992;28;20096;-73
2022/04/11 10:59:27;;;;;;;5.03;1.98;;;15.10;78.10;;;;;;5027014;28;20302;-73
2022/04/11 11:01:57;;;;;;;4.32;2.20;;;15.20;77.20;;;;;;5026272;28;20221;-72
2022/04/11 11:04:27;;;;;;;7.00;1.85;;;15.30;77.00;;;;;;5026558;28;20083;-72
2022/04/11 11:07:30;;;;;;;5.28;1.67;;;15.30;77.20;;;;;;5010488;28;20025;-72
2022/04/11 11:09:57;;;;;;;6.30;1.95;;;15.50;76.30;;;;;;5025948;28;20060;-72
2022/04/11 11:12:23;;;;;;;6.15;2.17;;;15.60;76.10;;;;;;4992827;28;20022;-72
2022/04/11 11:14:49;;;;;;;6.72;2.20;;;15.70;76.20;;;;;;5006024;28;20037;-71
2022/04/11 11:17:15;;;;;;;5.85;1.70;;;15.80;76.80;;;;;;5007880;28;20018;-72
2022/04/11 11:20:04;;;;;;;4.43;1.88;;;16.00;76.40;;;;;;5006364;28;20194;-74
2022/04/11 11:22:42;;;;;;;6.45;2.05;;;16.20;75.20;;;;;;4992686;28;20037;-71
2022/04/11 11:25:17;;;;;;;7.15;2.10;;;16.20;75.70;;;;;;5006424;28;20125;-73
2022/04/11 11:27:45;;;;;;;5.35;1.90;;;16.10;75.90;;;;;;4990409;28;20182;-73
2022/04/11 11:30:13;;;;;;;6.55;2.00;;;16.10;75.10;;;;;;5006620;28;20022;-73
2022/04/11 11:32:41;;;;;;;3.90;1.90;;;16.10;75.70;;;;;;5005688;28;20415;-73
2022/04/11 11:35:09;;;;;;;5.85;1.73;;;16.30;75.40;;;;;;5021661;28;20081;-72
2022/04/11 11:37:35;;;;;;;6.40;1.70;;;16.50;75.90;;;;;;5009655;28;20029;-73
2022/04/11 11:40:02;;;;;;;6.28;1.40;;;16.50;73.90;;;;;;5025320;28;20041;-73
2022/04/11 11:42:34;;;;;;;6.00;1.75;;;16.40;74.30;;;;;;5006892;28;20360;-72
2022/04/11 11:45:00;;;;;;;6.22;1.60;;;16.40;74.20;;;;;;5008833;28;20040;-72
2022/04/11 11:47:27;;;;;;;5.25;1.60;;;16.30;74.30;;;;;;5054245;28;20021;-73
2022/04/11 11:50:04;;;;;;;3.85;1.58;;;16.40;73.80;;;;;;5044636;28;20022;-72
2022/04/11 11:52:30;;;;;;;5.05;1.83;;;16.60;73.70;;;;;;5027328;28;20057;-73
2022/04/11 11:54:55;;;;;;;3.67;1.40;;;16.70;74.50;;;;;;5028033;28;20490;-73
2022/04/11 11:57:24;;;;;;;6.80;1.92;;;16.80;74.60;;;;;;5024662;28;20213;-73
2022/04/11 11:59:54;;;;;;;5.63;1.52;;;16.90;73.30;;;;;;4993078;28;20030;-74
2022/04/11 12:05:28;;;;;;;6.15;1.60;;;16.80;73.20;;;;;;5025308;28;20033;-73
2022/04/11 12:08:14;;;;;;;7.13;2.13;;;16.80;72.90;;;;;;5011117;28;20053;-73
2022/04/11 12:10:48;;;;;;;4.53;1.52;;;16.80;72.20;;;;;;5024238;28;20032;-72
2022/04/11 12:13:23;;;;;;;5.13;1.77;;;16.70;72.70;;;;;;5024185;28;20059;-72
2022/04/11 12:15:49;;;;;;;9.07;1.80;;;16.80;71.70;;;;;;5024309;28;20113;-72
2022/04/11 12:18:15;;;;;;;4.68;1.60;;;16.90;71.60;;;;;;5041236;28;20300;-73
2022/04/11 12:20:43;;;;;;;4.05;1.63;;;16.80;71.30;;;;;;5024803;28;20052;-72
2022/04/11 12:23:11;;;;;;;5.70;1.42;;;16.60;72.00;;;;;;5008434;28;20025;-72
2022/04/11 12:25:39;;;;;;;11.45;2.97;;;16.80;72.10;;;;;;5041304;28;20028;-72
2022/04/11 12:28:18;;;;;;;4.30;1.20;;;17.00;71.20;;;;;;5024717;28;20021;-72
2022/04/11 12:30:48;;;;;;;10.00;1.38;;;17.10;70.40;;;;;;5024407;28;20029;-73
2022/04/11 12:33:38;;;;;;;4.72;1.02;;;17.20;70.10;;;;;;5024284;28;20049;-74
2022/04/11 12:36:28;;;;;;;6.32;1.38;;;17.40;69.80;;;;;;5024429;28;20017;-72
2022/04/11 12:39:02;;;;;;;5.18;1.30;;;17.60;69.30;;;;;;5024007;28;20029;-72
2022/04/11 12:41:32;;;;;;;4.55;1.52;;;17.60;68.30;;;;;;5023444;28;20117;-72
2022/04/11 12:44:12;;;;;;;6.32;1.60;;;17.60;68.90;;;;;;5040693;28;20022;-73
2022/04/11 12:47:09;;;;;;;8.68;1.83;;;17.70;69.30;;;;;;5029526;28;20351;-74
2022/04/11 12:49:51;;;;;;;3.17;1.20;;;18.00;68.70;;;;;;5031832;28;20383;-73
2022/04/11 12:52:19;;;;;;;12.50;2.42;;;17.90;68.10;;;;;;5043454;28;20095;-71
2022/04/11 12:54:48;;;;;;;7.65;1.58;;;17.90;67.60;;;;;;5027340;28;20021;-73
2022/04/11 12:57:25;;;;;;;6.78;1.42;;;17.60;67.50;;;;;;5023459;28;20017;-73